Řízení letového provozu České republiky  
Aktualizace dat:  21.10.2018 00:09:07 UTC English version
   METEO Zobrazení stránky:  21.10.2018 00:09:59 UTC  
vysvětlivky
METAR EDDB 202350Z 28004KT CAVOK 07/04 Q1028 NOSIG=
METAR EDDC 202350Z VRB02KT 9999 OVC027 09/04 Q1028=
METAR EDDE 202350Z 23007KT 9999 BKN049 04/02 Q1029=
METAR EDDF 202350Z 03006KT CAVOK 07/04 Q1030 NOSIG=
METAR EDDM 202350Z 26003KT 5000 BR SCT038 SCT220 07/06 Q1028 BECMG 3000=
METAR EDDN 202350Z VRB02KT CAVOK 02/01 Q1029=
METAR EDDP 202350Z 26006KT CAVOK 08/05 Q1028 NOSIG=
METAR EDDT 202350Z 27002KT CAVOK 05/04 Q1028=
METAR EDQM NIL
METAR EPBY 210000Z 26004KT 0150 R26/0100N FG SCT000 02/02 Q1026 =
METAR EPGD 210000Z 28006KT 0500 R29/0900N FG VV001 06/06 Q1025 =
METAR EPKK 210000Z 29007KT 9999 BKN066 06/03 Q1024 =
METAR EPKT 210000Z 30004KT 9999 SCT025 BKN042 04/02 Q1025 =
METAR EPLL 210000Z 29004KT 260V320 CAVOK 07/06 Q1025 =
METAR EPPO 210000Z 30004KT 9999 BKN016 07/06 Q1026 R10/290095 =
METAR EPRZ 210000Z 29010KT 4000 -RA BR FEW003 BKN005 OVC012 08/07 Q1022 =
METAR EPWA 210000Z 32007KT 9999 FEW040 07/07 Q1025 NOSIG=
METAR EPWR 210000Z 30006KT 9999 SCT028 BKN040 07/03 Q1027 =
METAR LHBP 210000Z 30009KT CAVOK 11/08 Q1021 NOSIG=
METAR LHSM NIL
METAR LKBC 210000Z AUTO VRB02KT 9999 OVC061 07/03 Q1027=
METAR LKCV 210000Z 30003KT 9999 FEW037 BKN060 08/04 Q1028 NOSIG RMK BLU BLU=
METAR LKKB 210000Z 30004KT CAVOK 09/03 Q1028 RMK BLU=
METAR LKKU NIL
METAR LKKV 210000Z 32002KT 9999 SCT026 BKN043 07/03 Q1028 RMK REG QNH 1023=
METAR LKLN 210000Z AUTO VRB01KT 9999 SCT059 OVC130 06/04 Q1029=
METAR LKMT 210000Z 01006KT 9999 BKN035 OVC048 07/02 Q1026 NOSIG RMK REG QNH 1023=
METAR LKNA 210000Z 32007KT CAVOK 04/M00 Q1026 RMK BLU=
METAR LKPD 210000Z 28002KT CAVOK 08/02 Q1027 RMK BLACK=
METAR LKPR 210000Z 29004KT 9999 SCT028 08/04 Q1028 NOSIG RMK REG QNH 1023=
METAR LKTB 210000Z 32011KT CAVOK 06/00 Q1026 NOSIG RMK REG QNH 1023=
METAR LKVO NIL
METAR LOWI 202350Z AUTO 00000KT 9000 FEW024 BKN028 09/07 Q1028=
METAR LOWL 202350Z AUTO VRB01KT 6000 FEW034 BKN040 10/07 Q1027=
METAR LOWS 202350Z AUTO 15003KT 120V200 9999 FEW034 BKN040 09/07 Q1027=
METAR LOWW 202350Z 34012KT 9999 FEW035 SCT052 BKN160 09/02 Q1026 NOSIG=
METAR LZIB 210000Z 34011KT 9999 FEW034 09/03 Q1025=
METAR LZKZ 210000Z 01014KT 9999 OVC049 09/03 Q1021=
METAR LZMC NIL
METAR LZPP 210000Z AUTO 34011KT 9999 NCD 07/01 Q1024=
METAR LZSL 210000Z 02003KT CAVOK 08/03 Q1021=
METAR LZTT 210000Z 17005KT 130V200 9999 FEW016 OVC030 05/02 Q1021=
METAR LZZI 210000Z 10004KT 040V130 9999 BKN050 06/02 Q1025=